createdAt,value
2017-10-11T00:01:37.904Z,25.63
2017-10-11T00:04:05.536Z,22.80
2017-10-11T00:06:33.114Z,23.17
2017-10-11T00:09:00.629Z,30.87
2017-10-11T00:11:28.210Z,24.47
2017-10-11T00:13:56.000Z,25.53
2017-10-11T00:16:23.535Z,22.57
2017-10-11T00:18:51.078Z,25.03
2017-10-11T00:21:18.658Z,19.90
2017-10-11T00:23:46.183Z,22.77
2017-10-11T00:26:14.086Z,27.23
2017-10-11T00:28:41.655Z,24.53
2017-10-11T00:31:09.201Z,21.43
2017-10-11T00:33:36.727Z,27.90
2017-10-11T00:36:04.332Z,22.60
2017-10-11T00:38:31.850Z,31.17
2017-10-11T00:40:59.724Z,25.53
2017-10-11T00:43:27.270Z,20.80
2017-10-11T00:45:54.840Z,24.77
2017-10-11T00:48:22.371Z,21.97
2017-10-11T00:50:49.955Z,21.73
2017-10-11T00:53:17.519Z,23.20
2017-10-11T00:55:45.071Z,22.33
2017-10-11T00:58:12.675Z,34.40
2017-10-11T01:00:40.434Z,26.27
2017-10-11T01:03:08.007Z,21.30
2017-10-11T01:05:35.574Z,17.30
2017-10-11T01:08:03.115Z,22.27
2017-10-11T01:10:30.984Z,22.43
2017-10-11T01:12:58.546Z,20.20
2017-10-11T01:15:26.330Z,21.13
2017-10-11T01:17:53.872Z,25.70
2017-10-11T01:20:21.519Z,43.80
2017-10-11T01:22:49.103Z,38.43
2017-10-11T01:25:16.887Z,27.73
2017-10-11T01:27:44.499Z,21.77
2017-10-11T01:30:12.354Z,22.67
2017-10-11T01:32:39.902Z,20.10
2017-10-11T01:35:07.542Z,21.87
2017-10-11T01:37:35.118Z,25.63
2017-10-11T01:40:02.699Z,28.03
2017-10-11T01:42:30.351Z,18.90
2017-10-11T01:44:58.128Z,22.27
2017-10-11T01:47:25.714Z,19.03
2017-10-11T01:49:53.285Z,22.37
2017-10-11T01:52:20.828Z,23.20
2017-10-11T01:54:48.420Z,24.70
2017-10-11T01:57:16.080Z,21.93
2017-10-11T01:59:43.606Z,21.97
2017-10-11T02:02:11.149Z,24.73
2017-10-11T02:04:38.727Z,25.37
2017-10-11T02:07:06.274Z,25.20
2017-10-11T02:09:33.836Z,25.53
2017-10-11T02:12:01.457Z,24.73
2017-10-11T02:14:28.997Z,29.10
2017-10-11T02:16:56.515Z,29.60
2017-10-11T02:19:24.191Z,34.07
2017-10-11T02:21:51.777Z,28.23
2017-10-11T02:24:19.622Z,24.07
2017-10-11T02:26:47.174Z,30.83
2017-10-11T02:29:14.742Z,32.83
2017-10-11T02:31:42.499Z,29.83
2017-10-11T02:34:10.115Z,23.77
2017-10-11T02:36:37.647Z,25.97
2017-10-11T02:39:05.208Z,24.20
2017-10-11T02:41:32.823Z,23.07
2017-10-11T02:44:00.357Z,26.63
2017-10-11T02:46:27.882Z,25.03
2017-10-11T02:48:55.429Z,26.83
2017-10-11T02:51:23.194Z,25.80
2017-10-11T02:53:50.818Z,25.13
2017-10-11T02:56:18.384Z,23.43
2017-10-11T02:58:45.915Z,28.70
2017-10-11T03:01:13.453Z,34.73
2017-10-11T03:03:41.058Z,37.33
2017-10-11T03:06:08.853Z,28.80
2017-10-11T03:08:36.391Z,41.27
2017-10-11T03:11:04.171Z,27.30
2017-10-11T03:13:31.709Z,31.50
2017-10-11T03:15:59.244Z,23.90
2017-10-11T03:18:26.815Z,23.07
2017-10-11T03:20:54.567Z,19.00
2017-10-11T03:23:22.110Z,15.53
2017-10-11T03:25:49.782Z,25.13
2017-10-11T03:28:17.416Z,20.70
2017-10-11T03:30:45.175Z,17.73
2017-10-11T03:33:12.767Z,20.02
2017-10-11T03:35:40.322Z,18.70
2017-10-11T03:38:07.870Z,16.50
2017-10-11T03:40:35.454Z,15.90
2017-10-11T03:43:02.980Z,17.90
2017-10-11T03:45:30.559Z,18.50
2017-10-11T03:47:58.162Z,17.37
2017-10-11T03:50:25.919Z,15.80
2017-10-11T03:52:53.455Z,16.27
2017-10-11T03:55:21.009Z,15.00
2017-10-11T03:57:48.544Z,21.67
2017-10-11T04:00:16.368Z,20.95
2017-10-11T04:02:43.967Z,15.57
2017-10-11T04:05:11.493Z,25.80
2017-10-11T04:07:39.253Z,27.13
2017-10-11T04:10:06.882Z,24.60
2017-10-11T04:12:34.450Z,25.80
2017-10-11T04:15:01.994Z,30.23
2017-10-11T04:17:29.600Z,20.07
2017-10-11T04:19:57.112Z,20.10
2017-10-11T04:22:24.699Z,24.43
2017-10-11T04:24:52.281Z,18.00
2017-10-11T04:27:19.840Z,28.80
2017-10-11T04:29:47.412Z,24.10
2017-10-11T04:32:15.037Z,29.67
2017-10-11T04:34:42.807Z,32.50
2017-10-11T04:37:10.604Z,30.27
2017-10-11T04:39:38.187Z,21.73
2017-10-11T04:42:05.719Z,25.00
2017-10-11T04:44:33.263Z,29.10
2017-10-11T04:47:00.827Z,28.63
2017-10-11T04:49:28.381Z,29.80
2017-10-11T04:51:56.175Z,23.30
2017-10-11T04:54:23.782Z,44.73
2017-10-11T04:56:51.321Z,26.90
2017-10-11T04:59:18.844Z,22.87
2017-10-11T05:01:46.654Z,34.03
2017-10-11T05:04:14.197Z,31.27
2017-10-11T05:06:41.752Z,33.17
2017-10-11T05:09:09.323Z,34.00
2017-10-11T05:11:37.609Z,31.70
2017-10-11T05:14:05.134Z,43.03
2017-10-11T05:16:32.777Z,41.97
2017-10-11T05:19:00.537Z,46.83
2017-10-11T05:21:28.079Z,37.63
2017-10-11T05:23:55.684Z,38.90
2017-10-11T05:26:23.251Z,43.47
2017-10-11T05:28:51.077Z,35.43
2017-10-11T05:31:18.958Z,34.00
2017-10-11T05:33:46.542Z,37.20
2017-10-11T05:36:14.087Z,28.60
2017-10-11T05:38:41.723Z,24.80
2017-10-11T05:41:09.296Z,37.23
2017-10-11T05:43:36.857Z,39.53
2017-10-11T05:46:04.430Z,45.50
2017-10-11T05:48:31.959Z,31.03
2017-10-11T05:50:59.485Z,41.77
2017-10-11T05:53:27.056Z,26.03
2017-10-11T05:55:54.570Z,31.70
2017-10-11T05:58:22.134Z,25.83
2017-10-11T06:00:49.715Z,23.13
2017-10-11T06:03:17.285Z,23.30
2017-10-11T06:05:44.844Z,21.17
2017-10-11T06:08:12.466Z,23.70
2017-10-11T06:10:40.009Z,18.20
2017-10-11T06:13:07.530Z,20.07
2017-10-11T06:15:35.139Z,17.90
2017-10-11T06:18:02.710Z,18.57
2017-10-11T06:20:30.252Z,20.50
2017-10-11T06:22:57.860Z,22.53
2017-10-11T06:25:25.379Z,29.03
2017-10-11T06:27:52.894Z,22.93
2017-10-11T06:30:20.550Z,27.53
2017-10-11T06:32:48.081Z,23.07
2017-10-11T06:35:15.636Z,19.67
2017-10-11T06:37:43.207Z,28.93
2017-10-11T06:40:10.741Z,25.70
2017-10-11T06:42:38.340Z,24.67
2017-10-11T06:45:05.903Z,30.90
2017-10-11T06:47:33.424Z,26.63
2017-10-11T06:50:00.978Z,26.00
2017-10-11T06:52:28.544Z,24.90
2017-10-11T06:54:56.068Z,30.80
2017-10-11T06:57:23.645Z,24.70
2017-10-11T06:59:51.207Z,25.57
2017-10-11T07:02:18.776Z,27.00
2017-10-11T07:04:46.291Z,26.33
2017-10-11T07:07:13.799Z,20.80
2017-10-11T07:09:41.403Z,21.53
2017-10-11T07:12:09.192Z,24.10
2017-10-11T07:14:36.943Z,29.80
2017-10-11T07:17:04.566Z,31.17
2017-10-11T07:19:32.166Z,29.80
2017-10-11T07:21:59.718Z,27.20
2017-10-11T07:24:27.272Z,23.87
2017-10-11T07:26:54.797Z,23.53
2017-10-11T07:29:22.331Z,23.63
2017-10-11T07:31:49.899Z,25.23
2017-10-11T07:34:17.411Z,28.40
2017-10-11T07:36:44.976Z,19.37
2017-10-11T07:39:12.537Z,30.00
2017-10-11T07:41:40.139Z,23.03
2017-10-11T07:44:07.719Z,30.33
2017-10-11T07:46:35.410Z,31.50
2017-10-11T07:49:02.942Z,23.97
2017-10-11T07:51:30.495Z,25.90
2017-10-11T07:53:58.111Z,22.60
2017-10-11T07:56:25.767Z,30.90
2017-10-11T07:58:53.335Z,31.90
2017-10-11T08:01:20.951Z,24.43
2017-10-11T08:03:48.501Z,24.30
2017-10-11T08:06:16.029Z,28.20
2017-10-11T08:08:43.583Z,27.03
2017-10-11T08:11:11.137Z,24.50
2017-10-11T08:13:38.926Z,29.20
2017-10-11T08:16:06.490Z,24.93
2017-10-11T08:18:34.012Z,21.77
2017-10-11T08:21:01.791Z,20.67
2017-10-11T08:23:29.358Z,21.57
2017-10-11T08:25:56.895Z,27.10
2017-10-11T08:28:25.227Z,19.37
2017-10-11T08:30:52.814Z,22.77
2017-10-11T08:33:20.579Z,23.90
2017-10-11T08:35:48.118Z,23.90
2017-10-11T08:38:15.679Z,19.40
2017-10-11T08:40:43.208Z,24.60
2017-10-11T08:43:11.954Z,18.93
2017-10-11T08:45:39.579Z,20.77
2017-10-11T08:48:08.119Z,18.53
2017-10-11T08:50:35.662Z,18.53
2017-10-11T08:53:03.225Z,23.40
2017-10-11T08:55:30.786Z,40.67
2017-10-11T08:57:58.531Z,17.57
2017-10-11T09:00:26.185Z,16.03
2017-10-11T09:02:53.970Z,19.80
2017-10-11T09:05:21.500Z,19.10
2017-10-11T09:07:49.103Z,18.37
2017-10-11T09:10:16.730Z,11.93
2017-10-11T09:12:44.254Z,15.30
2017-10-11T09:15:11.810Z,11.60
2017-10-11T09:17:40.293Z,11.03
2017-10-11T09:20:07.958Z,11.60
2017-10-11T09:22:35.507Z,11.07
2017-10-11T09:25:03.067Z,15.07
2017-10-11T09:27:30.608Z,14.67
2017-10-11T09:29:58.178Z,14.47
2017-10-11T09:32:25.753Z,9.63
2017-10-11T09:34:53.270Z,17.53
2017-10-11T09:37:21.169Z,18.37
2017-10-11T09:39:48.720Z,12.40
2017-10-11T09:42:16.452Z,8.67
2017-10-11T09:44:43.989Z,20.07
2017-10-11T09:47:11.562Z,9.67
2017-10-11T09:49:39.076Z,11.23
2017-10-11T09:52:06.615Z,8.70
2017-10-11T09:54:34.204Z,9.73
2017-10-11T09:57:01.822Z,10.47
2017-10-11T09:59:29.390Z,19.03
2017-10-11T10:01:56.983Z,9.90
2017-10-11T10:04:24.562Z,7.10
2017-10-11T10:06:52.110Z,11.90
2017-10-11T10:09:19.711Z,7.13
2017-10-11T10:11:47.927Z,10.17
2017-10-11T10:14:15.440Z,8.37
2017-10-11T10:16:43.028Z,11.70
2017-10-11T10:19:10.640Z,10.20
2017-10-11T10:21:38.386Z,9.37
2017-10-11T10:24:05.979Z,14.40
2017-10-11T10:26:33.514Z,11.57
2017-10-11T10:29:01.326Z,9.20
2017-10-11T10:31:28.926Z,14.03
2017-10-11T10:33:56.522Z,14.60
2017-10-11T10:36:24.123Z,12.63
2017-10-11T10:38:51.740Z,17.53
2017-10-11T10:41:19.266Z,8.50
2017-10-11T10:43:46.845Z,9.10
2017-10-11T10:46:14.444Z,14.57
2017-10-11T10:48:42.556Z,8.80
2017-10-11T10:51:10.187Z,6.73
2017-10-11T10:53:37.784Z,7.00
2017-10-11T10:56:05.343Z,10.00
2017-10-11T10:58:32.871Z,8.80
2017-10-11T11:01:00.483Z,7.87
2017-10-11T11:03:28.014Z,7.97
2017-10-11T11:05:55.589Z,8.70
2017-10-11T11:08:23.516Z,5.70
2017-10-11T11:10:55.260Z,5.87
2017-10-11T11:13:22.813Z,5.40
2017-10-11T11:15:50.403Z,7.10
2017-10-11T11:18:17.929Z,8.67
2017-10-11T11:20:45.466Z,4.77
2017-10-11T11:23:13.036Z,5.10
2017-10-11T11:25:40.619Z,6.17
2017-10-11T11:28:08.363Z,6.23
2017-10-11T11:30:35.956Z,6.13
2017-10-11T11:33:03.508Z,7.37
2017-10-11T11:35:31.063Z,8.40
2017-10-11T11:37:59.686Z,10.43
2017-10-11T11:40:27.202Z,5.77
2017-10-11T11:42:54.725Z,6.43
2017-10-11T11:45:22.478Z,4.13
2017-10-11T11:47:50.037Z,16.10
2017-10-11T11:50:17.591Z,6.03
2017-10-11T11:52:45.188Z,7.13
2017-10-11T11:55:13.523Z,6.63
2017-10-11T11:57:41.090Z,6.10
2017-10-11T12:00:08.807Z,6.97
2017-10-11T12:02:36.351Z,5.20
2017-10-11T12:05:03.955Z,4.13
2017-10-11T12:07:31.539Z,5.93
2017-10-11T12:09:59.111Z,5.30
2017-10-11T12:12:26.661Z,5.47
2017-10-11T12:14:54.252Z,5.33
2017-10-11T12:17:21.806Z,4.13
2017-10-11T12:19:50.081Z,7.10
2017-10-11T12:22:17.695Z,4.83
2017-10-11T12:24:45.446Z,5.17
2017-10-11T12:27:13.017Z,4.90
2017-10-11T12:29:40.610Z,5.60
2017-10-11T12:32:08.266Z,10.90
2017-10-11T12:34:35.782Z,7.33
2017-10-11T12:37:03.568Z,4.30
2017-10-11T12:39:31.266Z,4.00
2017-10-11T12:41:58.784Z,6.40
2017-10-11T12:44:26.340Z,5.10
2017-10-11T12:46:53.914Z,3.43
2017-10-11T12:49:21.656Z,3.17
2017-10-11T12:51:49.227Z,3.60
2017-10-11T12:54:16.820Z,3.57
2017-10-11T12:56:44.598Z,5.10
2017-10-11T12:59:12.135Z,5.23
2017-10-11T13:01:39.717Z,6.23
2017-10-11T13:04:07.502Z,4.70
2017-10-11T13:06:35.051Z,7.17
2017-10-11T13:09:02.600Z,4.80
2017-10-11T13:11:30.114Z,3.10
2017-10-11T13:13:57.908Z,5.07
2017-10-11T13:16:25.465Z,4.00
2017-10-11T13:18:53.011Z,3.50
2017-10-11T13:21:20.772Z,4.57
2017-10-11T13:23:48.382Z,6.10
2017-10-11T13:26:16.336Z,4.03
2017-10-11T13:28:43.921Z,5.60
2017-10-11T13:31:11.504Z,8.37
2017-10-11T13:33:39.041Z,6.17
2017-10-11T13:36:06.594Z,11.30
2017-10-11T13:38:34.182Z,6.43
2017-10-11T13:41:01.715Z,6.40
2017-10-11T13:43:29.280Z,3.70
2017-10-11T13:45:56.871Z,4.30
2017-10-11T13:48:24.387Z,5.73
2017-10-11T13:50:52.239Z,7.43
2017-10-11T13:53:19.791Z,3.60
2017-10-11T13:55:47.298Z,3.53
2017-10-11T13:58:14.843Z,8.40
2017-10-11T14:00:42.395Z,4.27
2017-10-11T14:03:09.936Z,6.90
2017-10-11T14:05:37.677Z,4.63
2017-10-11T14:08:05.446Z,9.53
2017-10-11T14:10:32.964Z,7.83
2017-10-11T14:13:00.745Z,5.93
2017-10-11T14:15:28.511Z,5.10
2017-10-11T14:17:56.357Z,4.70
2017-10-11T14:20:23.905Z,5.67
2017-10-11T14:22:51.509Z,5.63
2017-10-11T14:25:19.059Z,6.83
2017-10-11T14:27:46.570Z,5.30
2017-10-11T14:30:14.287Z,5.63
2017-10-11T14:32:41.815Z,7.00
2017-10-11T14:35:09.428Z,5.63
2017-10-11T14:37:37.108Z,5.10
2017-10-11T14:40:04.863Z,6.97
2017-10-11T14:42:32.463Z,6.20
2017-10-11T14:45:00.082Z,6.10
2017-10-11T14:47:27.722Z,12.40
2017-10-11T14:49:55.278Z,5.70
2017-10-11T14:52:22.882Z,4.60
2017-10-11T14:54:50.404Z,3.97
2017-10-11T14:57:17.931Z,6.07
2017-10-11T14:59:45.550Z,7.60
2017-10-11T15:02:13.095Z,5.93
2017-10-11T15:04:40.602Z,8.73
2017-10-11T15:07:08.157Z,5.93
2017-10-11T15:09:35.729Z,8.27
2017-10-11T15:12:03.269Z,4.97
2017-10-11T15:14:30.826Z,4.33
2017-10-11T15:16:58.746Z,5.40
2017-10-11T15:19:26.267Z,6.60
2017-10-11T15:21:54.092Z,7.93
2017-10-11T15:24:21.686Z,8.70
2017-10-11T15:26:49.232Z,7.13
2017-10-11T15:29:16.824Z,14.23
2017-10-11T15:31:44.414Z,13.30
2017-10-11T15:34:11.924Z,13.27
2017-10-11T15:36:39.749Z,17.87
2017-10-11T15:39:07.377Z,36.47
2017-10-11T15:41:35.042Z,17.03
2017-10-11T15:44:03.478Z,16.00
2017-10-11T15:46:31.091Z,12.97
2017-10-11T15:49:00.119Z,8.27
2017-10-11T15:51:27.743Z,18.80
2017-10-11T15:53:55.334Z,16.70
2017-10-11T15:56:23.442Z,18.90
2017-10-11T15:59:17.554Z,18.03
2017-10-11T16:01:45.321Z,15.13
2017-10-11T16:04:34.839Z,15.27
2017-10-11T16:07:02.424Z,13.97
2017-10-11T16:09:29.992Z,14.37
2017-10-11T16:11:57.539Z,10.03
2017-10-11T16:14:25.086Z,12.70
2017-10-11T16:16:52.688Z,16.63
2017-10-11T16:19:20.271Z,33.30
2017-10-11T16:21:47.899Z,11.70
2017-10-11T16:24:15.645Z,14.20
2017-10-11T16:26:43.281Z,13.40
2017-10-11T16:29:10.957Z,7.30
2017-10-11T16:31:38.562Z,7.60
2017-10-11T16:34:06.138Z,7.97
2017-10-11T16:36:33.720Z,12.50
2017-10-11T16:39:01.306Z,17.03
2017-10-11T16:41:28.891Z,7.47
2017-10-11T16:43:57.457Z,9.13
2017-10-11T16:47:13.518Z,14.43
2017-10-11T16:49:41.112Z,10.60
2017-10-11T16:52:08.686Z,14.67
2017-10-11T16:54:36.202Z,8.43
2017-10-11T16:57:03.779Z,21.30
2017-10-11T16:59:31.548Z,15.73
2017-10-11T17:01:59.134Z,10.00
2017-10-11T17:04:26.651Z,12.10
2017-10-11T17:06:54.220Z,13.20
2017-10-11T17:09:21.798Z,14.10
2017-10-11T17:11:49.341Z,13.90
2017-10-11T17:14:43.167Z,15.50
2017-10-11T17:17:10.691Z,23.40
2017-10-11T17:19:38.486Z,32.33
2017-10-11T17:22:06.082Z,32.90
2017-10-11T17:24:37.294Z,23.47
2017-10-11T17:27:04.823Z,23.13
2017-10-11T17:29:32.442Z,20.50
2017-10-11T17:32:00.077Z,20.33
2017-10-11T17:34:27.610Z,28.37
2017-10-11T17:36:55.146Z,29.00
2017-10-11T17:39:22.690Z,24.83
2017-10-11T17:41:50.231Z,25.40
2017-10-11T17:44:17.756Z,22.20
2017-10-11T17:46:45.320Z,22.50
2017-10-11T17:49:13.072Z,24.37
2017-10-11T17:51:40.605Z,27.50
2017-10-11T17:54:08.267Z,27.20
2017-10-11T17:56:35.788Z,26.07
2017-10-11T17:59:03.365Z,25.57
2017-10-11T18:01:30.968Z,26.30
2017-10-11T18:03:58.491Z,21.53
2017-10-11T18:06:26.030Z,35.47
2017-10-11T18:08:53.577Z,26.00
2017-10-11T18:11:21.119Z,30.80
2017-10-11T18:13:48.712Z,32.10
2017-10-11T18:16:16.304Z,39.73
2017-10-11T18:18:43.847Z,29.93
2017-10-11T18:21:11.364Z,27.17
2017-10-11T18:23:38.959Z,37.93
2017-10-11T18:26:06.538Z,31.47
2017-10-11T18:28:34.087Z,27.50
2017-10-11T18:31:01.664Z,45.17
2017-10-11T18:33:29.257Z,36.13
2017-10-11T18:35:56.797Z,38.33
2017-10-11T18:38:24.400Z,40.90
2017-10-11T18:40:52.212Z,38.00
2017-10-11T18:46:50.750Z,35.27
2017-10-11T18:49:18.350Z,29.70
2017-10-11T18:51:45.868Z,38.40
2017-10-11T18:54:13.693Z,38.90
2017-10-11T18:56:41.217Z,39.33
2017-10-11T18:59:08.749Z,42.87
2017-10-11T19:01:36.533Z,48.87
2017-10-11T19:04:04.356Z,40.10
2017-10-11T19:06:31.907Z,41.17
2017-10-11T19:08:59.492Z,42.83
2017-10-11T19:11:27.201Z,42.40
2017-10-11T19:13:54.923Z,47.37
2017-10-11T19:16:22.487Z,33.50
2017-10-11T19:18:50.266Z,38.20
2017-10-11T19:21:18.269Z,42.73
2017-10-11T19:23:46.431Z,35.73
2017-10-11T19:26:14.227Z,53.97
2017-10-11T19:28:41.752Z,34.50
2017-10-11T19:31:09.325Z,42.43
2017-10-11T19:33:36.897Z,38.60
2017-10-11T19:36:04.417Z,41.60
2017-10-11T19:38:32.014Z,44.27
2017-10-11T19:40:59.560Z,38.13
2017-10-11T19:43:27.118Z,48.10
2017-10-11T19:45:54.729Z,58.13
2017-10-11T19:48:22.301Z,76.37
2017-10-11T19:50:49.876Z,134.97
2017-10-11T19:53:17.444Z,192.03
2017-10-11T19:55:44.984Z,166.83
2017-10-11T19:58:12.539Z,103.47
2017-10-11T20:00:57.843Z,92.00
2017-10-11T20:03:26.199Z,105.43
2017-10-11T20:05:54.044Z,100.40
2017-10-11T20:08:21.702Z,113.13
2017-10-11T20:10:50.158Z,83.80
2017-10-11T20:13:17.926Z,90.50
2017-10-11T20:15:45.643Z,99.13
2017-10-11T20:18:13.260Z,125.30
2017-10-11T20:20:40.843Z,122.20
2017-10-11T20:23:08.456Z,108.20
2017-10-11T20:25:36.018Z,101.50
2017-10-11T20:28:03.618Z,102.83
2017-10-11T20:30:31.197Z,96.00
2017-10-11T20:32:58.719Z,57.33
2017-10-11T20:35:26.249Z,50.00
2017-10-11T20:37:53.933Z,53.40
2017-10-11T20:40:21.450Z,53.93
2017-10-11T20:42:49.199Z,57.10
2017-10-11T20:45:16.989Z,56.20
2017-10-11T20:47:44.563Z,55.57
2017-10-11T20:50:12.101Z,55.67
2017-10-11T20:52:39.647Z,52.23
2017-10-11T20:55:07.176Z,46.83
2017-10-11T21:04:35.324Z,44.57
2017-10-11T21:07:02.933Z,30.17
2017-10-11T21:09:30.518Z,33.43
2017-10-11T21:11:58.172Z,29.70
2017-10-11T21:14:25.689Z,28.73
2017-10-11T21:16:53.757Z,28.50
2017-10-11T21:19:21.358Z,30.93
2017-10-11T21:21:48.896Z,27.27
2017-10-11T21:24:16.419Z,32.40
2017-10-11T21:26:44.203Z,29.90
2017-10-11T21:29:11.820Z,33.87
2017-10-11T21:31:39.414Z,28.80
2017-10-11T21:34:07.219Z,30.73
2017-10-11T21:36:34.769Z,29.50
2017-10-11T21:39:02.368Z,30.13
2017-10-11T21:41:30.201Z,31.63
2017-10-11T21:43:57.767Z,30.60
2017-10-11T21:46:25.440Z,25.00
2017-10-11T21:48:52.979Z,26.90
2017-10-11T21:51:20.582Z,24.47
2017-10-11T21:53:48.151Z,25.17
2017-10-11T21:56:15.977Z,26.50
2017-10-11T21:58:43.514Z,22.03
2017-10-11T22:01:11.115Z,23.33
2017-10-11T22:03:38.649Z,26.20
2017-10-11T22:06:06.178Z,24.87
2017-10-11T22:08:33.738Z,24.43
2017-10-11T22:11:02.111Z,21.50
2017-10-11T22:13:29.661Z,22.47
2017-10-11T22:15:57.226Z,18.10
2017-10-11T22:18:24.795Z,23.67
2017-10-11T22:20:52.598Z,19.70
2017-10-11T22:23:20.169Z,21.40
2017-10-11T22:25:47.748Z,19.80
2017-10-11T22:28:15.280Z,28.77
2017-10-11T22:30:42.903Z,24.03
2017-10-11T22:33:10.654Z,28.73
2017-10-11T22:35:38.591Z,25.67
2017-10-11T22:38:06.153Z,28.87
2017-10-11T22:40:33.681Z,32.60
2017-10-11T22:43:01.204Z,28.40
2017-10-11T22:45:28.767Z,23.63
2017-10-11T22:47:56.331Z,23.20
2017-10-11T22:50:24.122Z,28.70
2017-10-11T22:52:51.664Z,30.83
2017-10-11T22:55:19.201Z,27.87
2017-10-11T22:57:46.727Z,34.20
2017-10-11T23:00:14.410Z,30.97
2017-10-11T23:02:42.187Z,33.37
2017-10-11T23:05:09.718Z,36.57
2017-10-11T23:07:38.216Z,31.20
2017-10-11T23:10:06.045Z,33.20
2017-10-11T23:12:33.593Z,33.30
2017-10-11T23:15:01.642Z,39.97
2017-10-11T23:17:29.162Z,39.33
2017-10-11T23:19:56.700Z,36.60
2017-10-11T23:22:24.326Z,34.00
2017-10-11T23:24:51.917Z,35.50
2017-10-11T23:27:19.464Z,32.10
2017-10-11T23:29:47.064Z,40.20
2017-10-11T23:32:14.630Z,35.43
2017-10-11T23:34:42.409Z,36.67
2017-10-11T23:37:09.935Z,32.73
2017-10-11T23:39:37.722Z,33.20
2017-10-11T23:42:05.300Z,39.63
2017-10-11T23:44:32.826Z,32.67
2017-10-11T23:47:00.408Z,42.10
2017-10-11T23:49:27.949Z,33.80
2017-10-11T23:51:55.759Z,40.80
2017-10-11T23:54:23.360Z,30.20
2017-10-11T23:56:50.933Z,34.27
2017-10-11T23:59:18.497Z,32.77
